Mari Lampton — WDE3648 — position and weather

sailwx.info

Track history (hours):
 
Tides and Currents Weather Stations Pressure Air Temp Water Temp Dewpoint Dewpoint Depression Visibility Wind Speed Wind Dir Waves Ship Positions

Mari Lampton

Owner: MAgnolia Marine Transport Company, Vicksburg, MS. More information available from US FCC via Universal Licensing System and Coast Guard Vessel Documentation Center.

Last reported at 2018-May-16 06:47 UTC. Time now 2018-May-22 07:38 UTC.
Position N 32°51' W 091°07'.

Length 36 m.

Type: Towing. MMSI: 367342210.

Date/timePositionNaut miles runAvg speedWind from/ knotsBaromVisibWave heightAir tempDewpointWater temp
2018-May-16 06:47N 32°51' W 091°07'2 4.9
2018-May-16 06:28N 32°50' W 091°09'3 4.8
2018-May-16 05:44N 32°47' W 091°09'1 4.0
2018-May-16 05:23N 32°45' W 091°09'1 3.4
2018-May-16 05:01N 32°44' W 091°08'3 5.0
2018-May-16 04:24N 32°44' W 091°05'5 2.1
2018-May-16 02:13N 32°40' W 091°07'1 4.5
2018-May-16 01:56N 32°39' W 091°09'2 4.8
2018-May-16 01:27N 32°37' W 091°09'2 4.9
2018-May-16 01:01N 32°35' W 091°08'2 4.6
2018-May-16 00:30N 32°33' W 091°06'4 4.7
2018-May-15 23:35N 32°29' W 091°07'0 5.1
2018-May-15 23:30N 32°29' W 091°07'2 4.8
2018-May-15 23:01N 32°27' W 091°05'3 5.0
2018-May-15 22:30N 32°26' W 091°02'3 5.4
2018-May-15 22:01N 32°24' W 090°60'2 4.7
2018-May-15 21:31N 32°22' W 091°00'2 3.3
2018-May-15 21:01N 32°21' W 090°59'2 4.5
2018-May-15 20:31N 32°21' W 090°56'2 4.3
2018-May-15 20:01N 32°19' W 090°55'2 3.4
2018-May-15 19:31N 32°18' W 090°56'0 0.1
2018-May-15 19:01N 32°18' W 090°56'0 0.2
2018-May-15 18:31N 32°18' W 090°56'0 0.2
2018-May-15 18:01N 32°18' W 090°56'0 0.6
2018-May-15 17:30N 32°17' W 090°56'2 3.1
2018-May-15 17:01N 32°16' W 090°58'2 4.3
2018-May-15 16:31N 32°14' W 090°59'3 5.1
2018-May-15 16:00N 32°12' W 090°59'3 4.4
2018-May-15 15:26N 32°09' W 091°00'2 4.4
2018-May-15 15:01N 32°08' W 091°01'2 4.0
2018-May-15 14:29N 32°08' W 091°03'2 4.6
2018-May-15 14:01N 32°07' W 091°06'6 4.6
2018-May-15 12:45N 32°02' W 091°04'1 5.5
2018-May-15 12:29N 32°01' W 091°05'5 4.7
2018-May-15 11:23N 31°59' W 091°11'5 2.5
2018-May-15 09:21N 31°54' W 091°12'69 3.3
2018-May-14 12:37N 30°47' W 091°33'  
2018-May-10 11:51N 31°32' W 091°29'30 5.3
2018-May-10 06:16N 31°58' W 091°11'6 8.7
2018-May-10 05:37N 32°00' W 091°05'1 8.7
2018-May-10 05:30N 32°01' W 091°05'4 8.3
2018-May-10 04:58N 32°05' W 091°05'3 5.5
2018-May-10 04:31N 32°08' W 091°04'4 7.6
2018-May-10 04:01N 32°09' W 091°00'5 9.3
2018-May-10 03:30N 32°14' W 090°59'4 8.7
2018-May-10 03:01N 32°17' W 090°56'1 2.3
2018-May-10 02:30N 32°18' W 090°55'0 0.0
2018-May-10 02:01N 32°18' W 090°55'0 0.0
2018-May-10 01:31N 32°18' W 090°55'0 0.0
2018-May-10 01:01N 32°18' W 090°55'0 0.0
2018-May-10 00:30N 32°18' W 090°55'0 0.0
2018-May-10 00:01N 32°18' W 090°55'1 1.1
2018-May-09 23:30N 32°18' W 090°55'4 7.1
2018-May-09 23:01N 32°22' W 090°53'0 0.3
2018-May-09 22:31N 32°22' W 090°53'0 0.0
2018-May-09 22:01N 32°22' W 090°53'0 0.0
2018-May-09 21:31N 32°22' W 090°53'0 0.0
2018-May-09 21:01N 32°22' W 090°53'0 0.0
2018-May-09 20:31N 32°22' W 090°53'0 0.0
2018-May-09 20:00N 32°22' W 090°53'0 0.0
2018-May-09 19:31N 32°22' W 090°53'0 0.0
2018-May-09 19:01N 32°22' W 090°53'0 0.0
2018-May-09 18:31N 32°22' W 090°53'0 0.0
2018-May-09 18:01N 32°22' W 090°53'0 0.0
2018-May-09 17:31N 32°22' W 090°53'0 0.0
2018-May-09 17:01N 32°22' W 090°53'0 0.0
2018-May-09 16:31N 32°22' W 090°53'0 0.0
2018-May-09 16:00N 32°22' W 090°53'0 0.0
2018-May-09 15:31N 32°22' W 090°53'0 0.0
2018-May-09 15:01N 32°22' W 090°53'0 0.0
2018-May-09 14:31N 32°22' W 090°53'0 0.0
2018-May-09 14:00N 32°22' W 090°53'0 0.0
2018-May-09 13:31N 32°22' W 090°53'0 0.0
2018-May-09 13:01N 32°22' W 090°53'0 0.0
2018-May-09 12:30N 32°22' W 090°53'0 0.0
2018-May-09 12:01N 32°22' W 090°53'0 0.0
2018-May-09 11:31N 32°22' W 090°53'0 0.0
2018-May-09 11:01N 32°22' W 090°53'0 0.0
2018-May-09 10:30N 32°22' W 090°53'0 0.0
2018-May-09 10:01N 32°22' W 090°53'0 0.0
2018-May-09 09:31N 32°22' W 090°53'0 0.0
2018-May-09 09:01N 32°22' W 090°53'0 0.0
2018-May-09 08:30N 32°22' W 090°53'0 0.0
2018-May-09 08:01N 32°22' W 090°53'0 0.0
2018-May-09 07:30N 32°22' W 090°53'0 0.0
2018-May-09 07:01N 32°22' W 090°53'0 0.0
2018-May-09 06:30N 32°22' W 090°53'0 0.0
2018-May-09 06:01N 32°22' W 090°53'0 0.0
2018-May-09 05:31N 32°22' W 090°53'0 0.0
2018-May-09 05:01N 32°22' W 090°53'0 0.0
2018-May-09 04:30N 32°22' W 090°53'0 0.0
2018-May-09 04:01N 32°22' W 090°53'0 0.0
2018-May-09 03:30N 32°22' W 090°53'0 0.0
2018-May-09 03:00N 32°22' W 090°53'0 0.0
2018-May-09 02:31N 32°22' W 090°53'0 0.0
2018-May-09 02:01N 32°22' W 090°53'0 0.0
2018-May-09 01:31N 32°22' W 090°53'0 0.0
2018-May-09 01:01N 32°22' W 090°53'0 0.0
2018-May-09 00:31N 32°22' W 090°53'0 0.0
2018-May-09 00:01N 32°22' W 090°53'0 0.0
2018-May-08 23:31N 32°22' W 090°53'1 1.4
2018-May-08 23:01N 32°22' W 090°53'1 1.5
2018-May-08 22:25N 32°23' W 090°53'0 0.0
2018-May-08 21:57N 32°23' W 090°53'0 0.0
2018-May-08 21:30N 32°23' W 090°53'0 0.0
2018-May-08 21:00N 32°23' W 090°53'0 0.0
2018-May-08 20:30N 32°23' W 090°53'0 0.1
2018-May-08 20:01N 32°23' W 090°53'0 0.1
2018-May-08 19:29N 32°23' W 090°53'0 0.0
2018-May-08 18:56N 32°23' W 090°53'1 1.6
2018-May-08 18:31N 32°22' W 090°52'1 1.6
2018-May-08 18:01N 32°22' W 090°53'0 0.2
2018-May-08 17:31N 32°22' W 090°53'0 0.2
2018-May-08 17:01N 32°22' W 090°53'0 1.0
2018-May-08 16:31N 32°22' W 090°53'2 3.3
2018-May-08 16:01N 32°23' W 090°54'0 0.0
2018-May-08 15:31N 32°23' W 090°54'0 0.4
2018-May-08 15:01N 32°23' W 090°54'2 3.5
2018-May-08 14:31N 32°22' W 090°53'0 0.1
2018-May-08 14:00N 32°22' W 090°53'0 0.0
2018-May-08 13:31N 32°22' W 090°53'0 0.0
2018-May-08 13:01N 32°22' W 090°53'0 0.0
2018-May-08 12:31N 32°22' W 090°53'0 0.0
2018-May-08 12:01N 32°22' W 090°53'0 0.0
2018-May-08 11:31N 32°22' W 090°53'0 0.0
2018-May-08 11:01N 32°22' W 090°53'0 0.0
2018-May-08 10:31N 32°22' W 090°53'0 0.0
2018-May-08 10:01N 32°22' W 090°53'0 0.0
2018-May-08 09:31N 32°22' W 090°53'0 0.0
2018-May-08 09:01N 32°22' W 090°53'0 0.0
2018-May-08 08:31N 32°22' W 090°53'0 0.0
2018-May-08 08:01N 32°22' W 090°53'0 0.0
2018-May-08 07:31N 32°22' W 090°53'0 0.0
2018-May-08 07:01N 32°22' W 090°53'0 0.0
2018-May-08 06:31N 32°22' W 090°53'0 0.0
2018-May-08 06:01N 32°22' W 090°53'0 0.0
2018-May-08 05:31N 32°22' W 090°53'0 0.0
2018-May-08 05:01N 32°22' W 090°53'0 0.0
2018-May-08 04:30N 32°22' W 090°53'0 0.0
2018-May-08 04:01N 32°22' W 090°53'0 0.0
2018-May-08 03:30N 32°22' W 090°53'0 0.0
2018-May-08 03:01N 32°22' W 090°53'0 0.0
2018-May-08 02:31N 32°22' W 090°53'0 0.0
2018-May-08 02:01N 32°22' W 090°53'0 0.0
2018-May-08 01:31N 32°22' W 090°53'0 0.0
2018-May-08 01:01N 32°22' W 090°53'1 1.9
2018-May-08 00:30N 32°21' W 090°53'2 3.6
2018-May-08 00:00N 32°21' W 090°56'0 0.5
2018-May-07 23:29N 32°21' W 090°56'0 0.0
2018-May-07 23:00N 32°21' W 090°56'0 0.0
2018-May-07 22:30N 32°21' W 090°56'0 0.0
2018-May-07 22:01N 32°21' W 090°56'0 0.0
2018-May-07 21:31N 32°21' W 090°56'0 0.0
2018-May-07 21:00N 32°21' W 090°56'0 0.0
2018-May-07 20:31N 32°21' W 090°56'0 0.0
2018-May-07 20:01N 32°21' W 090°56'0 0.0
2018-May-07 19:31N 32°21' W 090°56'0 0.0
2018-May-07 19:01N 32°21' W 090°56'0 0.0
2018-May-07 18:31N 32°21' W 090°56'0 0.0
2018-May-07 18:01N 32°21' W 090°56'0 0.0
2018-May-07 17:31N 32°21' W 090°56'0 0.0
2018-May-07 17:01N 32°21' W 090°56'0 0.0
2018-May-07 16:31N 32°21' W 090°56'0 0.0
2018-May-07 16:00N 32°21' W 090°56'0 0.0
2018-May-07 15:31N 32°21' W 090°56'0 0.0
2018-May-07 15:01N 32°21' W 090°56'0 0.0
2018-May-07 14:31N 32°21' W 090°56'0 0.0
2018-May-07 14:01N 32°21' W 090°56'0 0.0
2018-May-07 13:31N 32°21' W 090°56'0 0.0
2018-May-07 13:01N 32°21' W 090°56'0 0.0
2018-May-07 12:31N 32°21' W 090°56'0 0.0
2018-May-07 12:01N 32°21' W 090°56'0 0.0
2018-May-07 11:31N 32°21' W 090°56'0 0.0
2018-May-07 11:00N 32°21' W 090°56'0 0.0
2018-May-07 10:31N 32°21' W 090°56'0 0.0
2018-May-07 10:01N 32°21' W 090°56'0 0.0
2018-May-07 09:30N 32°21' W 090°56'0 0.0
2018-May-07 09:00N 32°21' W 090°56'0 0.0
2018-May-07 08:30N 32°21' W 090°56'0 0.0
2018-May-07 08:01N 32°21' W 090°56'0 0.0
2018-May-07 07:31N 32°21' W 090°56'0 0.0
2018-May-07 07:01N 32°21' W 090°56'0 0.0
2018-May-07 06:31N 32°21' W 090°56'0 0.0
2018-May-07 06:01N 32°21' W 090°56'0 0.0
2018-May-07 05:31N 32°21' W 090°56'0 0.0
2018-May-07 05:01N 32°21' W 090°56'0 0.0
2018-May-07 04:31N 32°21' W 090°56'0 0.0
2018-May-07 04:01N 32°21' W 090°56'0 0.0
2018-May-07 03:31N 32°21' W 090°56'0 0.0
2018-May-07 03:00N 32°21' W 090°56'0 0.0
2018-May-07 02:31N 32°21' W 090°56'0 0.0
2018-May-07 02:01N 32°21' W 090°56'0 0.0
2018-May-07 01:31N 32°21' W 090°56'0 0.0
2018-May-07 01:01N 32°21' W 090°56'0 0.0
2018-May-07 00:31N 32°21' W 090°56'0 0.0
2018-May-07 00:01N 32°21' W 090°56'0 0.0
2018-May-06 23:30N 32°21' W 090°56'1 1.5
2018-May-06 23:01N 32°21' W 090°55'1 2.5
2018-May-06 22:30N 32°21' W 090°54'2 3.8
2018-May-06 22:01N 32°22' W 090°53'0 0.0
2018-May-06 21:31N 32°22' W 090°53'0 0.0
2018-May-06 21:01N 32°22' W 090°53'0 0.0
2018-May-06 20:31N 32°22' W 090°53'0 0.0
2018-May-06 20:00N 32°22' W 090°53'0 0.0
2018-May-06 19:31N 32°22' W 090°53'0 0.0
2018-May-06 19:01N 32°22' W 090°53'0 0.0
2018-May-06 18:31N 32°22' W 090°53'0 0.0
2018-May-06 18:01N 32°22' W 090°53'0 0.0
2018-May-06 17:31N 32°22' W 090°53'0 0.9
2018-May-06 17:01N 32°23' W 090°52'1 1.1
2018-May-06 16:30N 32°23' W 090°53'0 0.0
2018-May-06 16:00N 32°23' W 090°53'0 0.0
2018-May-06 15:30N 32°23' W 090°53'0 0.0
2018-May-06 15:00N 32°23' W 090°53'0 0.0
2018-May-06 14:30N 32°23' W 090°53'0 0.0
2018-May-06 14:00N 32°23' W 090°53'0 0.0
2018-May-06 13:30N 32°23' W 090°53'0 0.0
2018-May-06 13:00N 32°23' W 090°53'0 0.0
2018-May-06 12:30N 32°23' W 090°53'0 0.0
2018-May-06 12:00N 32°23' W 090°53'0 0.0
2018-May-06 11:30N 32°23' W 090°53'0 0.0
2018-May-06 11:00N 32°23' W 090°53'0 0.0
2018-May-06 10:30N 32°23' W 090°53'0 0.0
2018-May-06 10:00N 32°23' W 090°53'0 0.0
2018-May-06 09:30N 32°23' W 090°53'0 0.0
2018-May-06 09:00N 32°23' W 090°53'0 0.0
2018-May-06 08:30N 32°23' W 090°53'0 0.0
2018-May-06 08:00N 32°23' W 090°53'0 0.0
2018-May-06 07:30N 32°23' W 090°53'0 0.0
2018-May-06 07:00N 32°23' W 090°53'  
Track history (hours):
 
Tides and Currents Weather Stations Pressure Air Temp Water Temp Dewpoint Dewpoint Depression Visibility Wind Speed Wind Dir Waves Ship Positions

Mari Lampton

Owner: MAgnolia Marine Transport Company, Vicksburg, MS. More information available from US FCC via Universal Licensing System and Coast Guard Vessel Documentation Center.

Last reported at 2018-May-16 06:47 UTC. Time now 2018-May-22 07:38 UTC.
Position N 32°51' W 091°07'.

Length 36 m.

Type: Towing. MMSI: 367342210.

Date/timePositionNaut miles runAvg speedWind from/ knotsBaromVisibWave heightAir tempDewpointWater temp
2018-May-16 06:47N 32°51' W 091°07'2 4.9
2018-May-16 06:28N 32°50' W 091°09'3 4.8
2018-May-16 05:44N 32°47' W 091°09'1 4.0
2018-May-16 05:23N 32°45' W 091°09'1 3.4
2018-May-16 05:01N 32°44' W 091°08'3 5.0
2018-May-16 04:24N 32°44' W 091°05'5 2.1
2018-May-16 02:13N 32°40' W 091°07'1 4.5
2018-May-16 01:56N 32°39' W 091°09'2 4.8
2018-May-16 01:27N 32°37' W 091°09'2 4.9
2018-May-16 01:01N 32°35' W 091°08'2 4.6
2018-May-16 00:30N 32°33' W 091°06'4 4.7
2018-May-15 23:35N 32°29' W 091°07'0 5.1
2018-May-15 23:30N 32°29' W 091°07'2 4.8
2018-May-15 23:01N 32°27' W 091°05'3 5.0
2018-May-15 22:30N 32°26' W 091°02'3 5.4
2018-May-15 22:01N 32°24' W 090°60'2 4.7
2018-May-15 21:31N 32°22' W 091°00'2 3.3
2018-May-15 21:01N 32°21' W 090°59'2 4.5
2018-May-15 20:31N 32°21' W 090°56'2 4.3
2018-May-15 20:01N 32°19' W 090°55'2 3.4
2018-May-15 19:31N 32°18' W 090°56'0 0.1
2018-May-15 19:01N 32°18' W 090°56'0 0.2
2018-May-15 18:31N 32°18' W 090°56'0 0.2
2018-May-15 18:01N 32°18' W 090°56'0 0.6
2018-May-15 17:30N 32°17' W 090°56'2 3.1
2018-May-15 17:01N 32°16' W 090°58'2 4.3
2018-May-15 16:31N 32°14' W 090°59'3 5.1
2018-May-15 16:00N 32°12' W 090°59'3 4.4
2018-May-15 15:26N 32°09' W 091°00'2 4.4
2018-May-15 15:01N 32°08' W 091°01'2 4.0
2018-May-15 14:29N 32°08' W 091°03'2 4.6
2018-May-15 14:01N 32°07' W 091°06'6 4.6
2018-May-15 12:45N 32°02' W 091°04'1 5.5
2018-May-15 12:29N 32°01' W 091°05'5 4.7
2018-May-15 11:23N 31°59' W 091°11'5 2.5
2018-May-15 09:21N 31°54' W 091°12'69 3.3
2018-May-14 12:37N 30°47' W 091°33'  
2018-May-10 11:51N 31°32' W 091°29'30 5.3
2018-May-10 06:16N 31°58' W 091°11'6 8.7
2018-May-10 05:37N 32°00' W 091°05'1 8.7
2018-May-10 05:30N 32°01' W 091°05'4 8.3
2018-May-10 04:58N 32°05' W 091°05'3 5.5
2018-May-10 04:31N 32°08' W 091°04'4 7.6
2018-May-10 04:01N 32°09' W 091°00'5 9.3
2018-May-10 03:30N 32°14' W 090°59'4 8.7
2018-May-10 03:01N 32°17' W 090°56'1 2.3
2018-May-10 02:30N 32°18' W 090°55'0 0.0
2018-May-10 02:01N 32°18' W 090°55'0 0.0
2018-May-10 01:31N 32°18' W 090°55'0 0.0
2018-May-10 01:01N 32°18' W 090°55'0 0.0
2018-May-10 00:30N 32°18' W 090°55'0 0.0
2018-May-10 00:01N 32°18' W 090°55'1 1.1
2018-May-09 23:30N 32°18' W 090°55'4 7.1
2018-May-09 23:01N 32°22' W 090°53'0 0.3
2018-May-09 22:31N 32°22' W 090°53'0 0.0
2018-May-09 22:01N 32°22' W 090°53'0 0.0
2018-May-09 21:31N 32°22' W 090°53'0 0.0
2018-May-09 21:01N 32°22' W 090°53'0 0.0
2018-May-09 20:31N 32°22' W 090°53'0 0.0
2018-May-09 20:00N 32°22' W 090°53'0 0.0
2018-May-09 19:31N 32°22' W 090°53'0 0.0
2018-May-09 19:01N 32°22' W 090°53'0 0.0
2018-May-09 18:31N 32°22' W 090°53'0 0.0
2018-May-09 18:01N 32°22' W 090°53'0 0.0
2018-May-09 17:31N 32°22' W 090°53'0 0.0
2018-May-09 17:01N 32°22' W 090°53'0 0.0
2018-May-09 16:31N 32°22' W 090°53'0 0.0
2018-May-09 16:00N 32°22' W 090°53'0 0.0
2018-May-09 15:31N 32°22' W 090°53'0 0.0
2018-May-09 15:01N 32°22' W 090°53'0 0.0
2018-May-09 14:31N 32°22' W 090°53'0 0.0
2018-May-09 14:00N 32°22' W 090°53'0 0.0
2018-May-09 13:31N 32°22' W 090°53'0 0.0
2018-May-09 13:01N 32°22' W 090°53'0 0.0
2018-May-09 12:30N 32°22' W 090°53'0 0.0
2018-May-09 12:01N 32°22' W 090°53'0 0.0
2018-May-09 11:31N 32°22' W 090°53'0 0.0
2018-May-09 11:01N 32°22' W 090°53'0 0.0
2018-May-09 10:30N 32°22' W 090°53'0 0.0
2018-May-09 10:01N 32°22' W 090°53'0 0.0
2018-May-09 09:31N 32°22' W 090°53'0 0.0
2018-May-09 09:01N 32°22' W 090°53'0 0.0
2018-May-09 08:30N 32°22' W 090°53'0 0.0
2018-May-09 08:01N 32°22' W 090°53'0 0.0
2018-May-09 07:30N 32°22' W 090°53'0 0.0
2018-May-09 07:01N 32°22' W 090°53'0 0.0
2018-May-09 06:30N 32°22' W 090°53'0 0.0
2018-May-09 06:01N 32°22' W 090°53'0 0.0
2018-May-09 05:31N 32°22' W 090°53'0 0.0
2018-May-09 05:01N 32°22' W 090°53'0 0.0
2018-May-09 04:30N 32°22' W 090°53'0 0.0
2018-May-09 04:01N 32°22' W 090°53'0 0.0
2018-May-09 03:30N 32°22' W 090°53'0 0.0
2018-May-09 03:00N 32°22' W 090°53'0 0.0
2018-May-09 02:31N 32°22' W 090°53'0 0.0
2018-May-09 02:01N 32°22' W 090°53'0 0.0
2018-May-09 01:31N 32°22' W 090°53'0 0.0
2018-May-09 01:01N 32°22' W 090°53'0 0.0
2018-May-09 00:31N 32°22' W 090°53'0 0.0
2018-May-09 00:01N 32°22' W 090°53'0 0.0
2018-May-08 23:31N 32°22' W 090°53'1 1.4
2018-May-08 23:01N 32°22' W 090°53'1 1.5
2018-May-08 22:25N 32°23' W 090°53'0 0.0
2018-May-08 21:57N 32°23' W 090°53'0 0.0
2018-May-08 21:30N 32°23' W 090°53'0 0.0
2018-May-08 21:00N 32°23' W 090°53'0 0.0
2018-May-08 20:30N 32°23' W 090°53'0 0.1
2018-May-08 20:01N 32°23' W 090°53'0 0.1
2018-May-08 19:29N 32°23' W 090°53'0 0.0
2018-May-08 18:56N 32°23' W 090°53'1 1.6
2018-May-08 18:31N 32°22' W 090°52'1 1.6
2018-May-08 18:01N 32°22' W 090°53'0 0.2
2018-May-08 17:31N 32°22' W 090°53'0 0.2
2018-May-08 17:01N 32°22' W 090°53'0 1.0
2018-May-08 16:31N 32°22' W 090°53'2 3.3
2018-May-08 16:01N 32°23' W 090°54'0 0.0
2018-May-08 15:31N 32°23' W 090°54'0 0.4
2018-May-08 15:01N 32°23' W 090°54'2 3.5
2018-May-08 14:31N 32°22' W 090°53'0 0.1
2018-May-08 14:00N 32°22' W 090°53'0 0.0
2018-May-08 13:31N 32°22' W 090°53'0 0.0
2018-May-08 13:01N 32°22' W 090°53'0 0.0
2018-May-08 12:31N 32°22' W 090°53'0 0.0
2018-May-08 12:01N 32°22' W 090°53'0 0.0
2018-May-08 11:31N 32°22' W 090°53'0 0.0
2018-May-08 11:01N 32°22' W 090°53'0 0.0
2018-May-08 10:31N 32°22' W 090°53'0 0.0
2018-May-08 10:01N 32°22' W 090°53'0 0.0
2018-May-08 09:31N 32°22' W 090°53'0 0.0
2018-May-08 09:01N 32°22' W 090°53'0 0.0
2018-May-08 08:31N 32°22' W 090°53'0 0.0
2018-May-08 08:01N 32°22' W 090°53'0 0.0
2018-May-08 07:31N 32°22' W 090°53'0 0.0
2018-May-08 07:01N 32°22' W 090°53'0 0.0
2018-May-08 06:31N 32°22' W 090°53'0 0.0
2018-May-08 06:01N 32°22' W 090°53'0 0.0
2018-May-08 05:31N 32°22' W 090°53'0 0.0
2018-May-08 05:01N 32°22' W 090°53'0 0.0
2018-May-08 04:30N 32°22' W 090°53'0 0.0
2018-May-08 04:01N 32°22' W 090°53'0 0.0
2018-May-08 03:30N 32°22' W 090°53'0 0.0
2018-May-08 03:01N 32°22' W 090°53'0 0.0
2018-May-08 02:31N 32°22' W 090°53'0 0.0
2018-May-08 02:01N 32°22' W 090°53'0 0.0
2018-May-08 01:31N 32°22' W 090°53'0 0.0
2018-May-08 01:01N 32°22' W 090°53'1 1.9
2018-May-08 00:30N 32°21' W 090°53'2 3.6
2018-May-08 00:00N 32°21' W 090°56'0 0.5
2018-May-07 23:29N 32°21' W 090°56'0 0.0
2018-May-07 23:00N 32°21' W 090°56'0 0.0
2018-May-07 22:30N 32°21' W 090°56'0 0.0
2018-May-07 22:01N 32°21' W 090°56'0 0.0
2018-May-07 21:31N 32°21' W 090°56'0 0.0
2018-May-07 21:00N 32°21' W 090°56'0 0.0
2018-May-07 20:31N 32°21' W 090°56'0 0.0
2018-May-07 20:01N 32°21' W 090°56'0 0.0
2018-May-07 19:31N 32°21' W 090°56'0 0.0
2018-May-07 19:01N 32°21' W 090°56'0 0.0
2018-May-07 18:31N 32°21' W 090°56'0 0.0
2018-May-07 18:01N 32°21' W 090°56'0 0.0
2018-May-07 17:31N 32°21' W 090°56'0 0.0
2018-May-07 17:01N 32°21' W 090°56'0 0.0
2018-May-07 16:31N 32°21' W 090°56'0 0.0
2018-May-07 16:00N 32°21' W 090°56'0 0.0
2018-May-07 15:31N 32°21' W 090°56'0 0.0
2018-May-07 15:01N 32°21' W 090°56'0 0.0
2018-May-07 14:31N 32°21' W 090°56'0 0.0
2018-May-07 14:01N 32°21' W 090°56'0 0.0
2018-May-07 13:31N 32°21' W 090°56'0 0.0
2018-May-07 13:01N 32°21' W 090°56'0 0.0
2018-May-07 12:31N 32°21' W 090°56'0 0.0
2018-May-07 12:01N 32°21' W 090°56'0 0.0
2018-May-07 11:31N 32°21' W 090°56'0 0.0
2018-May-07 11:00N 32°21' W 090°56'0 0.0
2018-May-07 10:31N 32°21' W 090°56'0 0.0
2018-May-07 10:01N 32°21' W 090°56'0 0.0
2018-May-07 09:30N 32°21' W 090°56'0 0.0
2018-May-07 09:00N 32°21' W 090°56'0 0.0
2018-May-07 08:30N 32°21' W 090°56'0 0.0
2018-May-07 08:01N 32°21' W 090°56'0 0.0
2018-May-07 07:31N 32°21' W 090°56'0 0.0
2018-May-07 07:01N 32°21' W 090°56'0 0.0
2018-May-07 06:31N 32°21' W 090°56'0 0.0
2018-May-07 06:01N 32°21' W 090°56'0 0.0
2018-May-07 05:31N 32°21' W 090°56'0 0.0
2018-May-07 05:01N 32°21' W 090°56'0 0.0
2018-May-07 04:31N 32°21' W 090°56'0 0.0
2018-May-07 04:01N 32°21' W 090°56'0 0.0
2018-May-07 03:31N 32°21' W 090°56'0 0.0
2018-May-07 03:00N 32°21' W 090°56'0 0.0
2018-May-07 02:31N 32°21' W 090°56'0 0.0
2018-May-07 02:01N 32°21' W 090°56'0 0.0
2018-May-07 01:31N 32°21' W 090°56'0 0.0
2018-May-07 01:01N 32°21' W 090°56'0 0.0
2018-May-07 00:31N 32°21' W 090°56'0 0.0
2018-May-07 00:01N 32°21' W 090°56'0 0.0
2018-May-06 23:30N 32°21' W 090°56'1 1.5
2018-May-06 23:01N 32°21' W 090°55'1 2.5
2018-May-06 22:30N 32°21' W 090°54'2 3.8
2018-May-06 22:01N 32°22' W 090°53'0 0.0
2018-May-06 21:31N 32°22' W 090°53'0 0.0
2018-May-06 21:01N 32°22' W 090°53'0 0.0
2018-May-06 20:31N 32°22' W 090°53'0 0.0
2018-May-06 20:00N 32°22' W 090°53'0 0.0
2018-May-06 19:31N 32°22' W 090°53'0 0.0
2018-May-06 19:01N 32°22' W 090°53'0 0.0
2018-May-06 18:31N 32°22' W 090°53'0 0.0
2018-May-06 18:01N 32°22' W 090°53'0 0.0
2018-May-06 17:31N 32°22' W 090°53'0 0.9
2018-May-06 17:01N 32°23' W 090°52'1 1.1
2018-May-06 16:30N 32°23' W 090°53'0 0.0
2018-May-06 16:00N 32°23' W 090°53'0 0.0
2018-May-06 15:30N 32°23' W 090°53'0 0.0
2018-May-06 15:00N 32°23' W 090°53'0 0.0
2018-May-06 14:30N 32°23' W 090°53'0 0.0
2018-May-06 14:00N 32°23' W 090°53'0 0.0
2018-May-06 13:30N 32°23' W 090°53'0 0.0
2018-May-06 13:00N 32°23' W 090°53'0 0.0
2018-May-06 12:30N 32°23' W 090°53'0 0.0
2018-May-06 12:00N 32°23' W 090°53'0 0.0
2018-May-06 11:30N 32°23' W 090°53'0 0.0
2018-May-06 11:00N 32°23' W 090°53'0 0.0
2018-May-06 10:30N 32°23' W 090°53'0 0.0
2018-May-06 10:00N 32°23' W 090°53'0 0.0
2018-May-06 09:30N 32°23' W 090°53'0 0.0
2018-May-06 09:00N 32°23' W 090°53'0 0.0
2018-May-06 08:30N 32°23' W 090°53'0 0.0
2018-May-06 08:00N 32°23' W 090°53'0 0.0
2018-May-06 07:30N 32°23' W 090°53'0 0.0
2018-May-06 07:00N 32°23' W 090°53'  

Dump ship's entire track history